• Join FlightAware (Why Join?)
  • Login
  • US Flag 
01:21PM EDT


 

Airport Tracker/Info


-or-


 

Live Flight TrackerFlight Track Log ✈ AXM5240 ✈ 17-Sep-2013 ✈ WMKK / KUL - WBGB / BTU

Flight Track Log - Related Links

Times and Time Zones

All times are in EDT time to prevent confusion due to time zone crossing. See the AXM5240 flight status page for this flight to view local times or setup timezone preferences in your user account.

Time Position Orientation Groundspeed Altitude Reporting Facility
EDT Latitude Longitude Course Direction KTS MPH feet Rate Location/Type
01:47AM 2.9040 101.7340 67° East 287 330 6,800  Level FlightAware
01:47AM 2.9130 101.7540 66° East 296 341 7,500 2,700 Climbing FlightAware
01:47AM 2.9300 101.7950 67° East 298 343 9,000 3,180 Climbing FlightAware
01:48AM 2.9470 101.8360 67° East 301 346 10,500 1,800 Climbing FlightAware
01:49AM 2.9810 101.9180 67° East 338 389 11,700 720 Climbing FlightAware
01:50AM 3.0030 101.9690 67° East 356 410 11,800 60 Climbing FlightAware
01:50AM 3.0230 102.0160 67° East 356 410 11,800  Level FlightAware
01:51AM 3.0430 102.0630 67° East 356 410 11,800 1,620 Level FlightAware
01:54AM 3.0469 102.3779 89° East  Level Estimated
01:55AM 3.0484 102.4998 89° East  Level Estimated
01:56AM 3.0498 102.6217 89° East  Level Estimated
01:57AM 3.0513 102.7437 89° East  Level Estimated
01:58AM 3.0527 102.8656 89° East  Level Estimated
01:59AM 3.0542 102.9875 89° East  Level Estimated
02:00AM 3.0556 103.1094 89° East  Level Estimated
02:00AM 3.2970 103.0850 89° East 436 502 27,000  Level FlightAware
02:00AM 3.3180 103.1700 76° East 436 502 27,000  Level FlightAware
02:01AM 3.3360 103.2360 75° East 436 502 27,000  Level FlightAware
02:02AM 3.3360 103.2370 90° East 436 502 27,000  Level FlightAware
02:02AM 3.3520 103.2970 75° East 436 502 27,000  Level FlightAware
02:03AM 3.3680 103.3570 75° East 436 502 27,000  Level FlightAware
02:03AM 3.3840 103.4170 75° East 436 502 27,000  Level FlightAware
02:04AM 3.4000 103.4760 75° East 436 502 27,000  Level FlightAware
02:05AM 3.4160 103.5360 75° East 436 502 27,000  Level FlightAware
02:06AM 3.2700 103.8330 116° Southeast 434 499 27,000  Level FlightAware
02:07AM 3.2460 103.9180 106° East 435 501 27,000  Level FlightAware
02:07AM 3.2220 104.0040 106° East 434 499 27,000  Level FlightAware
02:08AM 3.2020 104.0760 106° East 434 499 27,000  Level FlightAware
02:09AM 3.1860 104.1370 105° East 434 499 27,000  Level FlightAware
02:09AM 3.1660 104.2080 106° East 433 498 27,000  Level FlightAware
02:10AM 3.1490 104.2690 106° East 433 498 27,000  Level FlightAware
02:10AM 3.1320 104.3330 105° East 433 498 27,000  Level FlightAware
02:11AM 3.1190 104.4010 101° East 430 495 27,000  Level FlightAware
02:11AM 3.1190 104.4400 90° East 431 496 27,000  Level FlightAware
02:12AM 3.1190 104.5410 90° East 430 495 27,000  Level FlightAware
02:13AM 3.1190 104.6050 90° East 425 489 27,000  Level FlightAware
02:13AM 3.1190 104.6750 90° East 426 490 27,000  Level FlightAware
02:14AM 3.1190 104.7290 90° East 426 490 27,000 120 Level FlightAware
02:14AM 3.1190 104.8170 90° East 424 488 27,200 480 Climbing FlightAware
02:15AM 3.1190 104.8770 90° East 429 494 27,600 660 Climbing FlightAware
02:15AM 3.1170 104.9540 91° East 435 501 28,000 360 Climbing FlightAware
02:16AM 3.1130 105.0320 93° East 432 497 28,100 60 Climbing FlightAware
02:17AM 3.1090 105.0940 94° East 432 497 28,100  Level FlightAware
02:17AM 3.1060 105.1550 93° East 432 497 28,100 1,980 Level FlightAware
02:18AM 3.0390 105.2390 129° Southeast 444 511 30,300 2,460 Climbing FlightAware
02:19AM 3.0160 105.3140 107° East 448 516 30,900 1,020 Climbing FlightAware
02:19AM 2.9970 105.3750 107° East 446 513 31,500 1,200 Climbing FlightAware
02:20AM 2.9750 105.4450 107° East 444 511 32,300 1,560 Climbing FlightAware
02:20AM 2.9530 105.5140 108° East 432 497 33,400 1,920 Climbing FlightAware
02:21AM 2.9310 105.5770 109° East 418 481 34,500 1,380 Climbing FlightAware
02:21AM 2.9080 105.6470 108° East 420 483 35,100 1,020 Climbing FlightAware
02:22AM 2.8880 105.7040 109° East 415 478 35,700 960 Climbing FlightAware
02:23AM 2.8670 105.7660 109° East 419 482 36,200 1,020 Climbing FlightAware
02:23AM 2.8450 105.8300 109° East 413 475 36,900 600 Climbing FlightAware
02:24AM 2.8220 105.9010 108° East 419 482 37,000 60 Climbing FlightAware
02:24AM 2.8010 105.9620 109° East 420 483 37,000  Level FlightAware
02:25AM 2.7740 106.0420 109° East 417 480 37,000  Level FlightAware
02:26AM 2.7490 106.1180 108° East 416 479 37,000  Level FlightAware
02:26AM 2.7260 106.1840 109° East 415 478 37,000  Level FlightAware
02:27AM 2.8320 105.8700 289° West 416 479 37,000  Level FlightAware
02:28AM 2.6730 106.3390 109° East 416 479 37,000  Level FlightAware
02:28AM 2.6500 106.4080 108° East 416 479 37,000  Level FlightAware
02:29AM 2.6270 106.4760 109° East 416 479 37,000  Level FlightAware
02:30AM 2.6040 106.5420 109° East 416 479 37,000  Level FlightAware
02:30AM 2.5820 106.6070 109° East 416 479 37,000  Level FlightAware
02:31AM 2.5630 106.6630 109° East 415 478 37,000  Level FlightAware
02:31AM 2.5410 106.7280 109° East 414 476 37,000  Level FlightAware
02:32AM 2.5210 106.7880 108° East 414 476 37,000  Level FlightAware
02:33AM 2.4980 106.8550 109° East 415 478 37,000  Level FlightAware
02:33AM 2.4750 106.9220 109° East 415 478 37,000  Level FlightAware
02:34AM 2.4550 106.9810 109° East 415 478 37,000  Level FlightAware
02:34AM 2.4340 107.0450 108° East 415 478 37,000  Level FlightAware
02:35AM 2.4160 107.1010 108° East 415 478 37,000  Level FlightAware
02:36AM 2.3980 107.1570 108° East 415 478 37,000  Level FlightAware
02:36AM 2.3620 107.2560 110° East 412 474 37,000  Level FlightAware
02:37AM 2.3340 107.3360 109° East 414 476 37,000  Level FlightAware
02:38AM 2.3130 107.4000 108° East 414 476 37,000  Level FlightAware
02:38AM 2.2920 107.4610 109° East 416 479 37,000  Level FlightAware
02:39AM 2.2730 107.5200 108° East 415 478 37,000  Level FlightAware
02:39AM 2.2550 107.5760 108° East 415 478 37,000  Level FlightAware
02:40AM 2.2360 107.6330 108° East 415 478 37,000  Level FlightAware
02:40AM 2.2180 107.6890 108° East 415 478 37,000  Level FlightAware
02:41AM 2.2000 107.7450 108° East 415 478 37,000  Level FlightAware
02:42AM 2.1810 107.8010 109° East 415 478 37,000  Level FlightAware
02:42AM 2.1630 107.8580 108° East 415 478 37,000  Level FlightAware
02:43AM 2.1450 107.9140 108° East 415 478 37,000  Level FlightAware
02:44AM 2.1260 107.9700 109° East 415 478 37,000  Level FlightAware
02:44AM 2.1080 108.0260 108° East 415 478 37,000  Level FlightAware
02:45AM 2.0900 108.0820 108° East 415 478 37,000  Level FlightAware
02:45AM 2.0720 108.1380 108° East 415 478 37,000  Level FlightAware
02:46AM 2.0540 108.1940 108° East 415 478 37,000  Level FlightAware
02:47AM 2.0360 108.2500 108° East 415 478 37,000  Level FlightAware
02:47AM 2.0180 108.3060 108° East 415 478 37,000  Level FlightAware
02:48AM 1.9990 108.3620 109° East 415 478 37,000  Level FlightAware
02:50AM 2.0409 108.5340 76° East  Level Estimated
02:51AM 2.0641 108.6296 76° East  Level Estimated
02:52AM 2.0873 108.7252 76° East  Level Estimated
02:53AM 2.1106 108.8208 76° East  Level Estimated
02:54AM 2.1338 108.9164 76° East  Level Estimated
02:55AM 2.1570 109.0120 76° East  Level Estimated
02:56AM 2.1802 109.1076 76° East  Level Estimated
02:57AM 2.2035 109.2032 76° East  Level Estimated
02:58AM 2.2267 109.2988 76° East  Level Estimated
02:59AM 2.2499 109.3944 76° East  Level Estimated
03:00AM 2.2731 109.4900 76° East  Level Estimated
03:01AM 2.2962 109.5857 76° East  Level Estimated
03:02AM 2.3194 109.6813 76° East  Level Estimated
03:03AM 2.3426 109.7769 76° East  Level Estimated
03:04AM 2.3658 109.8725 76° East  Level Estimated
03:05AM 2.3889 109.9681 76° East  Level Estimated
03:06AM 2.4121 110.0638 76° East  Level Estimated
03:07AM 2.4352 110.1594 76° East  Level Estimated
03:08AM 2.4584 110.2551 76° East  Level Estimated
03:09AM 2.4815 110.3507 76° East  Level Estimated
03:10AM 2.5046 110.4463 76° East  Level Estimated
03:11AM 2.5277 110.5420 76° East  Level Estimated
03:12AM 2.5508 110.6376 76° East  Level Estimated
03:13AM 2.5740 110.7333 76° East  Level Estimated
03:14AM 2.5970 110.8289 76° East  Level Estimated
03:15AM 2.6201 110.9246 76° East  Level Estimated
03:16AM 2.6432 111.0203 76° East  Level Estimated
03:17AM 2.6663 111.1159 76° East  Level Estimated
03:18AM 2.6894 111.2116 76° East  Level Estimated
03:19AM 2.7124 111.3073 76° East  Level Estimated
03:20AM 2.7355 111.4030 76° East  Level Estimated
03:21AM 2.7585 111.4986 76° East  Level Estimated
03:22AM 2.7816 111.5943 76° East  Level Estimated
03:23AM 2.8046 111.6900 76° East  Level Estimated
03:24AM 2.8276 111.7857 76° East  Level Estimated
03:25AM 2.8506 111.8814 76° East  Level Estimated
03:26AM 2.8736 111.9771 76° East  Level Estimated
03:27AM 2.8966 112.0728 76° East  Level Estimated
03:28AM 2.9196 112.1685 76° East  Level Estimated
03:29AM 2.9426 112.2642 76° East  Level Estimated
03:30AM 2.9656 112.3600 76° East  Level Estimated
03:31AM 2.9885 112.4557 76° East  Level Estimated
03:32AM 3.0115 112.5514 76° East  Level Estimated
03:33AM 3.0345 112.6471 76° East  Level Estimated
03:34AM 3.0574 112.7429 77° East  Level Estimated
03:35AM 3.0803 112.8386 77° East  Level Estimated
03:36AM 3.1032 112.9343 77° East  Level Estimated
03:37AM 3.1239 113.0205 77° East  Level Estimated
03:38AM 3.1239 113.0205 90° East  Level Estimated
03:39AM 3.1239 113.0205 90° East  Level Estimated
03:40AM 3.1239 113.0205 90° East  Level Estimated
03:41AM 3.1239 113.0205 90° East  Level Estimated